createdAt,value
2019-05-01T00:01:04.125Z,32.65
2019-05-01T00:03:42.613Z,35.55
2019-05-01T00:06:15.410Z,34.30
2019-05-01T00:08:46.541Z,36.20
2019-05-01T00:11:18.703Z,35.75
2019-05-01T00:13:49.991Z,32.67
2019-05-01T00:16:21.154Z,34.03
2019-05-01T00:18:52.319Z,37.03
2019-05-01T00:21:23.814Z,37.35
2019-05-01T00:23:54.880Z,36.13
2019-05-01T00:26:26.023Z,39.10
2019-05-01T00:28:57.206Z,37.53
2019-05-01T00:31:28.390Z,37.30
2019-05-01T00:33:59.505Z,36.88
2019-05-01T00:36:30.670Z,35.25
2019-05-01T00:39:01.833Z,37.80
2019-05-01T00:41:34.552Z,35.33
2019-05-01T00:44:05.694Z,34.85
2019-05-01T00:46:36.851Z,35.40
2019-05-01T00:49:08.026Z,34.45
2019-05-01T00:51:39.139Z,35.10
2019-05-01T00:54:11.296Z,35.20
2019-05-01T00:56:50.286Z,32.67
2019-05-01T00:59:22.973Z,35.95
2019-05-01T01:02:13.704Z,37.20
2019-05-01T01:04:44.795Z,38.85
2019-05-01T01:07:16.032Z,37.65
2019-05-01T01:09:47.147Z,39.92
2019-05-01T01:12:18.342Z,40.17
2019-05-01T01:14:49.518Z,39.95
2019-05-01T01:17:20.721Z,38.00
2019-05-01T01:19:53.921Z,35.25
2019-05-01T01:22:24.806Z,40.30
2019-05-01T01:24:55.871Z,38.88
2019-05-01T01:27:26.986Z,37.73
2019-05-01T01:29:58.176Z,37.83
2019-05-01T01:32:29.348Z,38.23
2019-05-01T01:35:01.534Z,38.42
2019-05-01T01:37:32.749Z,39.88
2019-05-01T01:40:05.539Z,39.55
2019-05-01T01:42:37.462Z,39.20
2019-05-01T01:45:16.067Z,36.68
2019-05-01T01:48:05.219Z,37.67
2019-05-01T01:50:38.173Z,36.93
2019-05-01T01:53:10.341Z,38.50
2019-05-01T01:55:42.111Z,36.75
2019-05-01T01:58:13.437Z,35.65
2019-05-01T02:00:46.317Z,36.68
2019-05-01T02:05:48.058Z,35.20
2019-05-01T02:08:19.317Z,36.05
2019-05-01T02:10:50.398Z,36.05
2019-05-01T02:13:21.558Z,37.35
2019-05-01T02:15:52.647Z,36.08
2019-05-01T02:18:23.824Z,38.02
2019-05-01T02:20:54.986Z,38.53
2019-05-01T02:23:26.166Z,36.95
2019-05-01T02:25:57.329Z,37.80
2019-05-01T02:28:30.118Z,36.03
2019-05-01T02:31:27.999Z,38.20
2019-05-01T02:33:55.631Z,39.65
2019-05-01T02:36:28.135Z,39.65
2019-05-01T02:39:00.827Z,40.75
2019-05-01T02:41:35.662Z,40.35
2019-05-01T02:44:10.105Z,39.48
2019-05-01T02:46:42.891Z,38.42
2019-05-01T02:49:38.111Z,36.50
2019-05-01T02:52:10.931Z,38.42
2019-05-01T02:54:43.301Z,38.88
2019-05-01T02:57:16.593Z,38.40
2019-05-01T02:59:49.991Z,39.20
2019-05-01T03:02:22.754Z,38.08
2019-05-01T03:07:25.498Z,36.33
2019-05-01T03:09:56.618Z,37.15
2019-05-01T03:12:29.223Z,36.17
2019-05-01T03:15:02.866Z,37.63
2019-05-01T03:17:46.124Z,38.17
2019-05-01T03:20:24.842Z,37.58
2019-05-01T03:23:13.871Z,35.80
2019-05-01T03:25:45.230Z,38.75
2019-05-01T03:28:16.477Z,40.35
2019-05-01T03:30:47.737Z,36.83
2019-05-01T03:33:19.242Z,36.83
2019-05-01T03:35:50.350Z,36.38
2019-05-01T03:38:21.540Z,37.48
2019-05-01T03:40:52.708Z,40.03
2019-05-01T03:43:23.802Z,38.73
2019-05-01T03:45:55.102Z,40.50
2019-05-01T03:48:26.224Z,38.78
2019-05-01T03:50:57.420Z,41.30
2019-05-01T03:53:28.541Z,39.90
2019-05-01T03:55:59.692Z,37.67
2019-05-01T03:58:31.489Z,36.68
2019-05-01T04:01:19.710Z,37.63
2019-05-01T04:03:52.928Z,38.95
2019-05-01T04:06:24.263Z,37.95
2019-05-01T04:08:55.801Z,36.90
2019-05-01T04:11:26.987Z,37.23
2019-05-01T04:13:58.661Z,38.80
2019-05-01T04:16:29.755Z,40.10
2019-05-01T04:19:00.918Z,39.20
2019-05-01T04:21:33.821Z,37.20
2019-05-01T04:26:35.481Z,38.50
2019-05-01T04:29:14.083Z,38.42
2019-05-01T04:31:47.416Z,40.50
2019-05-01T04:34:20.739Z,39.18
2019-05-01T04:36:59.402Z,40.85
2019-05-01T04:39:30.668Z,39.30
2019-05-01T04:42:02.291Z,39.98
2019-05-01T04:44:33.558Z,40.35
2019-05-01T04:47:04.727Z,40.17
2019-05-01T04:49:35.940Z,39.55
2019-05-01T04:52:07.051Z,38.25
2019-05-01T04:54:38.198Z,37.45
2019-05-01T04:57:09.386Z,38.42
2019-05-01T04:59:40.749Z,38.70
2019-05-01T05:02:13.445Z,37.90
2019-05-01T05:04:45.079Z,39.83
2019-05-01T05:07:16.286Z,43.75
2019-05-01T05:09:48.006Z,39.18
2019-05-01T05:12:26.739Z,41.60
2019-05-01T05:14:59.398Z,43.58
2019-05-01T05:17:30.502Z,43.38
2019-05-01T05:20:01.648Z,44.00
2019-05-01T05:22:32.802Z,41.45
2019-05-01T05:25:04.904Z,42.50
2019-05-01T05:27:37.273Z,41.68
2019-05-01T05:30:08.566Z,41.42
2019-05-01T05:32:41.089Z,41.20
2019-05-01T05:35:14.538Z,37.85
2019-05-01T05:37:57.627Z,39.83
2019-05-01T05:43:04.513Z,39.67
2019-05-01T05:45:35.636Z,39.27
2019-05-01T05:48:06.959Z,36.63
2019-05-01T05:50:52.903Z,38.02
2019-05-01T05:53:25.556Z,36.60
2019-05-01T05:56:00.155Z,36.90
2019-05-01T05:58:35.440Z,37.95
2019-05-01T06:01:09.966Z,38.05
2019-05-01T06:03:51.921Z,35.50
2019-05-01T06:06:43.976Z,37.53
2019-05-01T06:09:16.684Z,35.13
2019-05-01T06:11:49.404Z,34.73
2019-05-01T06:14:39.462Z,33.90
2019-05-01T06:17:17.838Z,33.73
2019-05-01T06:19:50.972Z,33.30
2019-05-01T06:22:24.212Z,31.93
2019-05-01T06:25:06.521Z,31.30
2019-05-01T06:27:39.636Z,32.80
2019-05-01T06:30:12.521Z,33.78
2019-05-01T06:32:43.998Z,32.30
2019-05-01T06:35:15.132Z,32.30
2019-05-01T06:38:00.688Z,30.77
2019-05-01T06:40:33.047Z,30.48
2019-05-01T06:43:04.206Z,30.55
2019-05-01T06:45:36.141Z,30.92
2019-05-01T06:48:08.993Z,30.73
2019-05-01T06:53:15.289Z,35.20
2019-05-01T06:55:46.806Z,43.15
2019-05-01T06:58:20.470Z,34.55
2019-05-01T07:00:54.466Z,35.08
2019-05-01T07:03:25.802Z,32.50
2019-05-01T07:05:57.108Z,38.53
2019-05-01T07:08:29.516Z,37.38
2019-05-01T07:11:01.434Z,36.83
2019-05-01T07:13:35.525Z,38.53
2019-05-01T07:16:07.705Z,44.35
2019-05-01T07:18:38.973Z,37.70
2019-05-01T07:21:10.368Z,37.93
2019-05-01T07:23:41.525Z,34.15
2019-05-01T07:26:13.719Z,44.95
2019-05-01T07:28:46.465Z,42.35
2019-05-01T07:31:19.154Z,43.73
2019-05-01T07:33:51.299Z,39.58
2019-05-01T07:36:23.382Z,36.00
2019-05-01T07:38:54.554Z,34.03
2019-05-01T07:41:28.455Z,33.90
2019-05-01T07:44:04.217Z,30.30
2019-05-01T07:46:36.975Z,36.42
2019-05-01T07:49:08.210Z,37.33
2019-05-01T07:51:42.369Z,35.88
2019-05-01T07:54:14.988Z,36.75
2019-05-01T07:56:46.172Z,43.50
2019-05-01T07:59:17.377Z,38.38
2019-05-01T08:01:54.545Z,34.95
2019-05-01T08:04:35.826Z,34.50
2019-05-01T08:09:27.962Z,23.30
2019-05-01T08:11:59.103Z,22.40
2019-05-01T08:14:30.272Z,21.75
2019-05-01T08:17:01.473Z,21.40
2019-05-01T08:19:40.740Z,21.30
2019-05-01T08:22:16.886Z,20.68
2019-05-01T08:24:48.170Z,22.37
2019-05-01T08:27:21.390Z,19.98
2019-05-01T08:29:56.867Z,20.25
2019-05-01T08:32:45.159Z,22.15
2019-05-01T08:35:18.039Z,27.32
2019-05-01T08:40:20.528Z,29.10
2019-05-01T08:45:35.845Z,21.57
2019-05-01T08:48:07.256Z,19.35
2019-05-01T08:53:10.872Z,19.82
2019-05-01T08:55:45.012Z,18.23
2019-05-01T08:58:15.977Z,17.75
2019-05-01T09:00:47.238Z,16.45
2019-05-01T09:03:19.189Z,17.02
2019-05-01T09:08:27.058Z,16.60
2019-05-01T09:13:28.046Z,15.55
2019-05-01T09:15:59.435Z,14.53
2019-05-01T09:18:30.563Z,13.65
2019-05-01T09:21:06.385Z,13.62
2019-05-01T09:23:46.100Z,13.30
2019-05-01T09:26:22.458Z,13.00
2019-05-01T09:28:55.320Z,14.00
2019-05-01T09:31:33.849Z,14.87
2019-05-01T09:34:05.236Z,14.33
2019-05-01T09:36:38.045Z,14.33
2019-05-01T09:39:10.820Z,16.37
2019-05-01T09:44:13.884Z,14.38
2019-05-01T09:46:44.961Z,15.30
2019-05-01T09:49:18.337Z,14.70
2019-05-01T09:52:02.488Z,14.05
2019-05-01T09:54:42.961Z,14.65
2019-05-01T09:57:14.277Z,14.25
2019-05-01T09:59:45.386Z,14.73
2019-05-01T10:02:16.481Z,15.08
2019-05-01T10:04:47.652Z,12.78
2019-05-01T10:07:18.752Z,13.35
2019-05-01T10:09:52.179Z,10.85
2019-05-01T10:12:22.942Z,10.53
2019-05-01T10:14:54.201Z,9.70
2019-05-01T10:17:25.407Z,9.63
2019-05-01T10:19:56.695Z,8.53
2019-05-01T10:22:27.890Z,7.65
2019-05-01T10:24:59.084Z,9.10
2019-05-01T10:27:35.649Z,8.30
2019-05-01T10:30:07.816Z,7.30
2019-05-01T10:32:40.503Z,7.25
2019-05-01T10:38:04.662Z,6.30
2019-05-01T10:40:36.068Z,7.50
2019-05-01T10:43:07.211Z,7.05
2019-05-01T10:45:38.449Z,6.78
2019-05-01T10:48:09.662Z,6.95
2019-05-01T10:50:40.879Z,6.37
2019-05-01T10:53:13.836Z,6.70
2019-05-01T10:55:45.071Z,6.65
2019-05-01T10:58:18.398Z,6.22
2019-05-01T11:03:20.997Z,5.78
2019-05-01T11:05:55.992Z,6.58
2019-05-01T11:08:25.115Z,6.65
2019-05-01T11:10:56.187Z,5.80
2019-05-01T11:13:27.538Z,5.70
2019-05-01T11:16:02.021Z,5.47
2019-05-01T11:18:33.344Z,5.08
2019-05-01T11:21:11.806Z,5.85
2019-05-01T11:23:44.487Z,6.00
2019-05-01T11:26:19.715Z,7.05
2019-05-01T11:28:54.048Z,6.75
2019-05-01T11:31:27.770Z,7.15
2019-05-01T11:34:22.589Z,6.95
2019-05-01T11:37:02.810Z,7.05
2019-05-01T11:39:40.928Z,6.05
2019-05-01T11:42:18.494Z,6.53
2019-05-01T11:44:50.675Z,5.75
2019-05-01T11:47:23.296Z,4.42
2019-05-01T11:52:30.242Z,3.70
2019-05-01T11:55:05.826Z,3.65
2019-05-01T11:57:38.053Z,4.33
2019-05-01T12:00:24.069Z,3.95
2019-05-01T12:02:57.814Z,2.95
2019-05-01T12:05:29.027Z,3.45
2019-05-01T12:08:02.229Z,3.42
2019-05-01T12:10:36.854Z,2.92
2019-05-01T12:13:08.567Z,3.20
2019-05-01T12:15:47.164Z,3.70
2019-05-01T12:18:22.235Z,4.12
2019-05-01T12:20:57.127Z,3.83
2019-05-01T12:23:32.086Z,3.37
2019-05-01T12:26:04.454Z,3.58
2019-05-01T12:28:36.816Z,3.15
2019-05-01T12:31:08.323Z,3.50
2019-05-01T12:33:41.211Z,3.02
2019-05-01T12:36:12.931Z,2.67
2019-05-01T12:38:46.758Z,2.98
2019-05-01T12:41:37.966Z,2.47
2019-05-01T12:44:10.527Z,2.52
2019-05-01T12:46:59.388Z,2.80
2019-05-01T12:49:30.684Z,2.30
2019-05-01T12:54:47.484Z,5.00
2019-05-01T12:57:19.614Z,3.45
2019-05-01T12:59:50.838Z,2.60
2019-05-01T13:02:23.998Z,2.62
2019-05-01T13:04:59.462Z,2.92
2019-05-01T13:07:33.599Z,2.55
2019-05-01T13:12:37.295Z,2.75
2019-05-01T13:15:10.053Z,2.10
2019-05-01T13:20:14.709Z,2.45
2019-05-01T13:22:48.513Z,2.20
2019-05-01T13:25:19.844Z,2.35
2019-05-01T13:27:52.545Z,2.25
2019-05-01T13:30:28.486Z,2.40
2019-05-01T13:33:02.307Z,2.08
2019-05-01T13:35:35.346Z,2.72
2019-05-01T13:38:09.490Z,3.00
2019-05-01T13:40:50.582Z,2.75
2019-05-01T13:43:37.826Z,3.00
2019-05-01T13:46:14.771Z,2.52
2019-05-01T13:48:47.645Z,2.75
2019-05-01T13:51:20.180Z,2.50
2019-05-01T13:53:53.163Z,2.75
2019-05-01T13:56:25.051Z,2.77
2019-05-01T13:58:59.830Z,3.10
2019-05-01T14:01:31.117Z,2.87
2019-05-01T14:04:10.451Z,2.12
2019-05-01T14:06:38.239Z,1.77
2019-05-01T14:09:11.631Z,2.08
2019-05-01T14:11:49.216Z,2.25
2019-05-01T14:14:20.898Z,1.95
2019-05-01T14:16:52.026Z,1.90
2019-05-01T14:19:24.098Z,1.82
2019-05-01T14:21:59.862Z,1.90
2019-05-01T14:24:35.601Z,2.40
2019-05-01T14:27:09.364Z,2.02
2019-05-01T14:29:40.594Z,1.90
2019-05-01T14:32:13.539Z,3.20
2019-05-01T14:34:47.446Z,2.47
2019-05-01T14:37:29.579Z,2.00
2019-05-01T14:39:52.240Z,2.50
2019-05-01T14:42:23.553Z,2.15
2019-05-01T14:44:58.633Z,1.62
2019-05-01T14:47:29.829Z,1.95
2019-05-01T14:50:00.984Z,1.50
2019-05-01T14:52:32.821Z,1.70
2019-05-01T14:55:09.254Z,1.70
2019-05-01T14:57:40.533Z,1.52
2019-05-01T15:00:13.059Z,1.30
2019-05-01T15:02:47.184Z,1.75
2019-05-01T15:05:19.147Z,1.75
2019-05-01T15:07:55.368Z,2.12
2019-05-01T15:10:28.535Z,2.00
2019-05-01T15:13:02.290Z,1.80
2019-05-01T15:15:35.539Z,1.98
2019-05-01T15:18:14.097Z,2.37
2019-05-01T15:20:46.558Z,2.67
2019-05-01T15:23:17.999Z,3.10
2019-05-01T15:25:55.419Z,3.00
2019-05-01T15:28:28.514Z,3.30
2019-05-01T15:31:01.306Z,3.83
2019-05-01T15:33:33.265Z,4.08
2019-05-01T15:36:04.470Z,3.02
2019-05-01T15:38:38.967Z,3.00
2019-05-01T15:41:13.431Z,4.00
2019-05-01T15:44:04.909Z,3.10
2019-05-01T15:46:38.119Z,3.08
2019-05-01T15:49:09.320Z,3.85
2019-05-01T15:51:40.703Z,2.65
2019-05-01T15:54:12.036Z,4.45
2019-05-01T15:56:44.218Z,5.12
2019-05-01T15:59:16.701Z,2.83
2019-05-01T16:01:50.522Z,3.62
2019-05-01T16:04:22.819Z,3.37
2019-05-01T16:06:59.953Z,5.70
2019-05-01T16:09:31.769Z,3.40
2019-05-01T16:12:21.461Z,3.33
2019-05-01T16:14:53.646Z,2.55
2019-05-01T16:17:25.264Z,2.80
2019-05-01T16:19:57.908Z,3.83
2019-05-01T16:22:34.455Z,2.45
2019-05-01T16:25:07.088Z,3.92
2019-05-01T16:27:41.529Z,1.75
2019-05-01T16:30:15.996Z,1.90
2019-05-01T16:35:17.722Z,2.17
2019-05-01T16:37:49.143Z,2.30
2019-05-01T16:40:30.816Z,2.35
2019-05-01T16:43:02.084Z,3.02
2019-05-01T16:45:33.309Z,2.55
2019-05-01T16:48:04.777Z,2.17
2019-05-01T16:50:35.927Z,2.60
2019-05-01T16:53:07.244Z,2.27
2019-05-01T16:55:38.447Z,2.08
2019-05-01T16:58:11.284Z,1.80
2019-05-01T17:03:44.684Z,2.87
2019-05-01T17:06:29.765Z,5.12
2019-05-01T17:09:05.011Z,3.17
2019-05-01T17:11:37.639Z,4.00
2019-05-01T17:14:09.419Z,5.20
2019-05-01T17:16:41.790Z,4.17
2019-05-01T17:19:14.578Z,4.22
2019-05-01T17:21:45.671Z,4.40
2019-05-01T17:24:16.926Z,3.40
2019-05-01T17:26:48.008Z,2.80
2019-05-01T17:29:19.536Z,3.55
2019-05-01T17:31:50.889Z,4.78
2019-05-01T17:34:25.599Z,4.78
2019-05-01T17:39:26.693Z,6.45
2019-05-01T17:42:02.055Z,7.90
2019-05-01T17:44:30.660Z,6.20
2019-05-01T17:47:01.852Z,4.28
2019-05-01T17:49:33.152Z,4.25
2019-05-01T17:52:04.443Z,3.47
2019-05-01T17:54:35.570Z,2.58
2019-05-01T17:57:06.795Z,2.62
2019-05-01T17:59:37.955Z,2.25
2019-05-01T18:02:11.548Z,2.35
2019-05-01T18:04:44.452Z,3.12
2019-05-01T18:07:15.595Z,2.42
2019-05-01T18:09:46.730Z,2.55
2019-05-01T18:12:17.973Z,2.30
2019-05-01T18:14:49.137Z,2.60
2019-05-01T18:17:20.355Z,2.52
2019-05-01T18:19:51.476Z,2.87
2019-05-01T18:22:26.878Z,3.10
2019-05-01T18:25:07.584Z,2.87
2019-05-01T18:27:43.004Z,2.77
2019-05-01T18:30:20.119Z,2.40
2019-05-01T18:32:52.566Z,3.00
2019-05-01T18:35:23.476Z,3.35
2019-05-01T18:37:56.149Z,2.92
2019-05-01T18:40:34.815Z,2.92
2019-05-01T18:43:07.075Z,2.42
2019-05-01T18:45:55.152Z,2.37
2019-05-01T18:48:26.293Z,2.52
2019-05-01T18:50:57.473Z,1.98
2019-05-01T18:53:28.555Z,1.87
2019-05-01T18:56:01.381Z,1.95
2019-05-01T19:01:04.097Z,2.50
2019-05-01T19:06:07.705Z,2.20
2019-05-01T19:08:38.829Z,1.55
2019-05-01T19:11:13.053Z,1.82
2019-05-01T19:13:44.283Z,2.22
2019-05-01T19:16:18.282Z,2.15
2019-05-01T19:18:49.545Z,2.35
2019-05-01T19:21:23.894Z,1.60
2019-05-01T19:24:00.639Z,1.35
2019-05-01T19:26:28.633Z,2.30
2019-05-01T19:28:59.805Z,1.80
2019-05-01T19:31:30.997Z,1.65
2019-05-01T19:34:02.189Z,2.17
2019-05-01T19:36:33.285Z,1.45
2019-05-01T19:39:06.948Z,2.25
2019-05-01T19:41:38.834Z,2.02
2019-05-01T19:44:13.852Z,1.70
2019-05-01T19:46:43.050Z,2.17
2019-05-01T19:49:14.209Z,1.85
2019-05-01T19:51:46.866Z,1.70
2019-05-01T19:54:18.183Z,1.70
2019-05-01T19:56:49.434Z,1.75
2019-05-01T19:59:23.432Z,2.65
2019-05-01T20:01:54.521Z,1.90
2019-05-01T20:04:25.666Z,2.30
2019-05-01T20:06:57.928Z,2.37
2019-05-01T20:09:29.745Z,1.80
2019-05-01T20:12:01.048Z,2.27
2019-05-01T20:14:32.267Z,2.10
2019-05-01T20:17:04.650Z,2.00
2019-05-01T20:22:06.669Z,1.87
2019-05-01T20:24:39.953Z,2.17
2019-05-01T20:27:10.618Z,2.10
2019-05-01T20:29:41.723Z,2.10
2019-05-01T20:32:12.857Z,2.20
2019-05-01T20:34:48.123Z,2.52
2019-05-01T20:37:16.727Z,3.58
2019-05-01T20:39:48.179Z,4.08
2019-05-01T20:42:19.412Z,3.95
2019-05-01T20:45:03.776Z,4.15
2019-05-01T20:47:34.472Z,4.30
2019-05-01T20:49:56.293Z,3.65
2019-05-01T20:52:29.941Z,3.70
2019-05-01T20:55:01.145Z,3.02
2019-05-01T20:57:33.897Z,2.27
2019-05-01T21:00:11.413Z,2.10
2019-05-01T21:02:43.019Z,2.12
2019-05-01T21:05:18.643Z,2.72
2019-05-01T21:08:06.981Z,1.92
2019-05-01T21:10:50.473Z,2.33
2019-05-01T21:13:23.081Z,1.90
2019-05-01T21:15:50.787Z,1.50
2019-05-01T21:18:25.960Z,1.70
2019-05-01T21:23:25.394Z,1.82
2019-05-01T21:25:56.475Z,1.47
2019-05-01T21:28:27.570Z,2.02
2019-05-01T21:30:58.755Z,1.50
2019-05-01T21:33:29.957Z,1.50
2019-05-01T21:36:04.995Z,1.27
2019-05-01T21:38:33.795Z,1.10
2019-05-01T21:41:04.967Z,1.35
2019-05-01T21:43:37.146Z,1.30
2019-05-01T21:46:08.491Z,1.22
2019-05-01T21:48:39.602Z,1.30
2019-05-01T21:51:12.503Z,1.25
2019-05-01T21:53:46.346Z,1.30
2019-05-01T21:58:47.188Z,1.55
2019-05-01T22:01:18.427Z,1.20
2019-05-01T22:03:52.583Z,1.70
2019-05-01T22:06:25.013Z,1.40
2019-05-01T22:08:56.100Z,1.42
2019-05-01T22:11:27.311Z,1.60
2019-05-01T22:14:01.745Z,1.90
2019-05-01T22:16:33.015Z,1.92
2019-05-01T22:19:05.872Z,1.40
2019-05-01T22:21:38.510Z,1.45
2019-05-01T22:24:27.569Z,1.87
2019-05-01T22:27:00.266Z,1.80
2019-05-01T22:29:38.821Z,1.50
2019-05-01T22:32:15.571Z,1.82
2019-05-01T22:35:01.665Z,1.72
2019-05-01T22:37:32.739Z,1.70
2019-05-01T22:40:06.542Z,2.00
2019-05-01T22:42:37.790Z,1.50
2019-05-01T22:45:12.102Z,1.50
2019-05-01T22:47:46.018Z,2.17
2019-05-01T22:50:16.422Z,1.70
2019-05-01T22:52:47.700Z,1.72
2019-05-01T22:55:20.464Z,1.92
2019-05-01T22:57:51.530Z,1.70
2019-05-01T23:00:28.925Z,2.10
2019-05-01T23:03:05.349Z,2.08
2019-05-01T23:05:34.336Z,2.08
2019-05-01T23:08:05.514Z,1.98
2019-05-01T23:10:36.647Z,1.82
2019-05-01T23:13:07.779Z,2.10
2019-05-01T23:15:38.845Z,2.12
2019-05-01T23:18:15.363Z,2.22
2019-05-01T23:20:43.786Z,1.92
2019-05-01T23:23:14.937Z,1.65
2019-05-01T23:25:46.021Z,2.20
2019-05-01T23:28:17.155Z,2.42
2019-05-01T23:30:48.366Z,2.17
2019-05-01T23:33:19.535Z,2.40
2019-05-01T23:35:50.631Z,2.22
2019-05-01T23:38:21.997Z,2.60
2019-05-01T23:40:53.264Z,1.90
2019-05-01T23:43:27.956Z,2.42
2019-05-01T23:45:58.477Z,2.45
2019-05-01T23:48:29.496Z,2.47
2019-05-01T23:51:02.271Z,2.90
2019-05-01T23:53:33.413Z,2.80
2019-05-01T23:56:04.512Z,2.67
2019-05-01T23:58:35.639Z,2.87
